Time;durP1;ratioP1;P1;durP2;ratioP2;P2;SDS_P1;SDS_P2;PMS_P1;PMS_P2;Temp;Humidity;BMP_temperature;BMP_pressure;BME280_temperature;BME280_humidity;BME280_pressure;Samples;Min_cycle;Max_cycle;Signal;HPM_P1;HPM_P2
2022/01/05 00:02:09;;;;;;;4.95;1.20;;;4.90;73.00;;;;;;4994073;28;20042;-77
2022/01/05 00:04:35;;;;;;;9.95;1.65;;;4.90;72.90;;;;;;4996297;28;20065;-75
2022/01/05 00:07:02;;;;;;;5.38;1.25;;;4.90;73.00;;;;;;4995497;28;20066;-77
2022/01/05 00:09:28;;;;;;;9.32;1.20;;;4.90;73.00;;;;;;4997110;28;20422;-76
2022/01/05 00:11:55;;;;;;;4.70;0.98;;;4.90;73.10;;;;;;4996122;28;20035;-76
2022/01/05 00:14:20;;;;;;;6.47;2.08;;;4.90;73.20;;;;;;4978510;28;20042;-75
2022/01/05 00:16:46;;;;;;;6.45;1.02;;;4.90;73.30;;;;;;4988863;28;20042;-76
2022/01/05 00:19:12;;;;;;;7.53;1.30;;;4.90;73.40;;;;;;4994284;28;20035;-75
2022/01/05 00:21:40;;;;;;;7.97;1.50;;;5.00;73.80;;;;;;4962443;28;20059;-75
2022/01/05 00:24:06;;;;;;;8.07;1.40;;;4.90;73.40;;;;;;4992889;28;20058;-75
2022/01/05 00:26:32;;;;;;;4.70;1.33;;;5.00;73.90;;;;;;4995446;28;20381;-75
2022/01/05 00:28:58;;;;;;;6.93;1.40;;;4.90;73.30;;;;;;4993111;28;20038;-76
2022/01/05 00:31:24;;;;;;;5.07;1.05;;;4.90;73.40;;;;;;4992933;28;20124;-76
2022/01/05 00:33:50;;;;;;;8.45;1.73;;;4.90;73.30;;;;;;4974283;28;20065;-76
2022/01/05 00:36:16;;;;;;;6.05;1.42;;;4.90;73.40;;;;;;4967386;28;20042;-76
2022/01/05 00:38:42;;;;;;;10.00;1.70;;;4.90;73.40;;;;;;4977025;28;20035;-76
2022/01/05 00:41:08;;;;;;;7.00;1.10;;;4.90;73.40;;;;;;4977671;28;20397;-76
2022/01/05 00:43:34;;;;;;;7.95;1.67;;;4.90;73.30;;;;;;4993889;28;20713;-76
2022/01/05 00:46:00;;;;;;;6.80;1.33;;;4.90;73.30;;;;;;4970266;28;20133;-76
2022/01/05 00:48:26;;;;;;;7.20;1.52;;;4.90;73.40;;;;;;4994741;28;20039;-77
2022/01/05 00:50:51;;;;;;;6.55;1.80;;;4.90;73.20;;;;;;4990496;28;20138;-76
2022/01/05 00:53:17;;;;;;;8.90;1.20;;;4.90;73.10;;;;;;4995390;28;20121;-76
2022/01/05 00:55:43;;;;;;;7.28;1.10;;;4.80;72.90;;;;;;4978173;28;20074;-75
2022/01/05 00:58:08;;;;;;;6.50;1.30;;;4.80;73.00;;;;;;4994340;28;20486;-75
2022/01/05 01:00:34;;;;;;;4.90;1.10;;;4.80;73.20;;;;;;4961622;28;20039;-76
2022/01/05 01:03:00;;;;;;;9.00;1.08;;;4.80;73.20;;;;;;4992842;28;20076;-75
2022/01/05 01:05:25;;;;;;;6.05;1.50;;;4.80;73.20;;;;;;4995065;28;20051;-75
2022/01/05 01:07:51;;;;;;;5.25;1.15;;;4.80;72.90;;;;;;4977612;28;20046;-75
2022/01/05 01:10:17;;;;;;;10.80;1.50;;;4.80;73.00;;;;;;4992054;28;20035;-75
2022/01/05 01:12:42;;;;;;;6.15;1.20;;;4.80;72.90;;;;;;4995183;28;20090;-75
2022/01/05 01:15:11;;;;;;;5.28;1.10;;;4.80;73.00;;;;;;4962073;28;20057;-75
2022/01/05 01:17:37;;;;;;;9.40;1.65;;;4.80;73.10;;;;;;4970228;28;20054;-75
2022/01/05 01:20:04;;;;;;;14.15;2.17;;;4.80;73.00;;;;;;4993514;28;20093;-75
2022/01/05 01:22:31;;;;;;;7.57;1.83;;;4.80;73.00;;;;;;4990269;28;20038;-76
2022/01/05 01:24:57;;;;;;;8.23;1.73;;;4.80;73.10;;;;;;4995499;28;20046;-75
2022/01/05 01:27:23;;;;;;;7.63;1.65;;;4.80;73.00;;;;;;4986978;28;20080;-75
2022/01/05 01:29:49;;;;;;;7.60;1.27;;;4.80;72.70;;;;;;4994753;28;20497;-75
2022/01/05 01:32:14;;;;;;;7.72;1.65;;;4.80;72.60;;;;;;4993555;28;20062;-76
2022/01/05 01:34:40;;;;;;;7.13;1.35;;;4.90;72.60;;;;;;4995140;28;20046;-75
2022/01/05 01:37:06;;;;;;;10.88;1.45;;;4.80;72.60;;;;;;4965281;28;20093;-75
2022/01/05 01:39:31;;;;;;;8.65;1.80;;;4.80;72.60;;;;;;4995071;28;20065;-76
2022/01/05 01:41:57;;;;;;;7.07;1.90;;;4.80;72.60;;;;;;4992625;28;20035;-76
2022/01/05 01:44:23;;;;;;;7.18;1.42;;;4.80;72.60;;;;;;4994751;28;20134;-76
2022/01/05 01:46:48;;;;;;;8.65;1.48;;;4.80;72.50;;;;;;4976743;28;20035;-76
2022/01/05 01:49:14;;;;;;;5.60;1.20;;;4.80;72.60;;;;;;4993237;28;20542;-75
2022/01/05 01:51:40;;;;;;;9.05;1.88;;;4.80;72.50;;;;;;4969663;28;20371;-75
2022/01/05 01:54:07;;;;;;;12.38;2.22;;;4.80;72.40;;;;;;4994120;28;20042;-75
2022/01/05 01:56:34;;;;;;;13.15;2.03;;;4.80;72.40;;;;;;4974082;28;20053;-76
2022/01/05 01:59:01;;;;;;;12.10;1.73;;;4.80;72.20;;;;;;4992857;28;20038;-77
2022/01/05 02:01:27;;;;;;;9.10;1.60;;;4.80;72.30;;;;;;4989873;28;20494;-76
2022/01/05 02:03:53;;;;;;;11.05;2.53;;;4.80;72.10;;;;;;4989474;28;20116;-76
2022/01/05 02:06:18;;;;;;;8.40;2.35;;;4.70;71.80;;;;;;4973832;28;20407;-76
2022/01/05 02:08:44;;;;;;;8.02;1.58;;;4.80;72.00;;;;;;4980193;28;20046;-75
2022/01/05 02:11:12;;;;;;;10.43;1.55;;;4.80;71.90;;;;;;4993193;28;20065;-76
2022/01/05 02:13:38;;;;;;;8.45;1.52;;;4.70;71.90;;;;;;4994362;28;20117;-76
2022/01/05 02:16:05;;;;;;;12.13;2.30;;;4.70;72.00;;;;;;4990763;28;20078;-76
2022/01/05 02:21:09;;;;;;;9.60;2.33;;;4.80;72.00;;;;;;4994059;28;20077;-77
2022/01/05 02:23:35;;;;;;;7.80;1.50;;;4.80;72.10;;;;;;4992946;28;20125;-76
2022/01/05 02:26:05;;;;;;;7.07;1.42;;;4.80;72.20;;;;;;4991911;28;20041;-76
2022/01/05 02:28:31;;;;;;;6.05;1.92;;;4.80;72.20;;;;;;4974056;28;20054;-76
2022/01/05 02:30:57;;;;;;;12.32;2.05;;;4.70;72.00;;;;;;4975928;28;20105;-76
2022/01/05 02:33:24;;;;;;;9.75;2.03;;;4.80;72.10;;;;;;4993631;28;20132;-76
2022/01/05 02:35:51;;;;;;;15.43;3.47;;;4.70;72.00;;;;;;4993627;28;20089;-76
2022/01/05 02:38:21;;;;;;;8.82;1.63;;;4.70;72.00;;;;;;4991792;28;20074;-76
2022/01/05 02:40:48;;;;;;;10.05;1.92;;;4.80;72.00;;;;;;4964790;28;20088;-76
2022/01/05 02:43:13;;;;;;;8.05;1.77;;;4.70;72.00;;;;;;4970318;28;20046;-76
2022/01/05 02:45:39;;;;;;;10.55;2.05;;;4.70;72.00;;;;;;4993830;28;20049;-76
2022/01/05 02:48:05;;;;;;;10.57;1.83;;;4.70;71.90;;;;;;4986096;28;20038;-76
2022/01/05 02:50:31;;;;;;;7.82;1.60;;;4.80;71.80;;;;;;4993991;28;20085;-76
2022/01/05 02:52:57;;;;;;;11.95;2.40;;;4.80;71.80;;;;;;4983208;28;20129;-76
2022/01/05 02:55:23;;;;;;;12.52;2.13;;;4.80;71.80;;;;;;4971775;28;20053;-76
2022/01/05 02:57:49;;;;;;;10.70;2.63;;;4.80;71.80;;;;;;4992839;28;20045;-76
2022/01/05 03:00:16;;;;;;;9.85;2.08;;;4.80;71.80;;;;;;4976054;28;20058;-76
2022/01/05 03:02:43;;;;;;;10.18;2.40;;;4.80;71.90;;;;;;4970577;28;20089;-76
2022/01/05 03:05:09;;;;;;;12.75;1.98;;;4.80;71.80;;;;;;4975522;28;20054;-75
2022/01/05 03:07:39;;;;;;;16.15;3.17;;;4.80;71.60;;;;;;4989409;28;20409;-76
2022/01/05 03:10:06;;;;;;;12.63;2.47;;;4.80;71.70;;;;;;4991518;28;20043;-76
2022/01/05 03:12:32;;;;;;;15.05;2.72;;;4.80;71.70;;;;;;4984525;28;20047;-76
2022/01/05 03:14:58;;;;;;;13.18;2.20;;;4.90;71.70;;;;;;4993584;28;20088;-76
2022/01/05 03:17:23;;;;;;;15.70;2.03;;;4.90;71.70;;;;;;4976177;28;20042;-76
2022/01/05 03:19:49;;;;;;;13.60;2.60;;;4.80;71.70;;;;;;4993737;28;20120;-76
2022/01/05 03:22:15;;;;;;;12.10;2.30;;;4.80;71.70;;;;;;4990965;28;20542;-76
2022/01/05 03:24:40;;;;;;;14.82;2.65;;;4.90;71.80;;;;;;4979208;28;20050;-76
2022/01/05 03:27:06;;;;;;;15.75;2.85;;;4.90;71.70;;;;;;4996932;28;20418;-76
2022/01/05 03:29:32;;;;;;;13.48;2.75;;;4.90;71.40;;;;;;4993260;28;20078;-76
2022/01/05 03:31:57;;;;;;;6.15;1.73;;;4.90;71.40;;;;;;4996493;28;20046;-76
2022/01/05 03:34:23;;;;;;;10.45;2.63;;;4.90;71.40;;;;;;4984393;28;20043;-76
2022/01/05 03:36:49;;;;;;;14.57;2.47;;;4.90;71.30;;;;;;4982595;28;20097;-76
2022/01/05 03:39:15;;;;;;;14.85;2.60;;;4.90;71.30;;;;;;4983991;28;20042;-76
2022/01/05 03:41:41;;;;;;;13.77;2.08;;;4.90;71.20;;;;;;4985480;28;20044;-76
2022/01/05 03:44:08;;;;;;;12.73;2.47;;;4.90;71.30;;;;;;4978402;28;20081;-76
2022/01/05 03:46:34;;;;;;;10.52;2.70;;;4.90;71.30;;;;;;4996641;28;20038;-76
2022/01/05 03:49:00;;;;;;;15.05;2.95;;;4.90;70.80;;;;;;4996076;28;20046;-76
2022/01/05 03:51:26;;;;;;;6.78;1.92;;;4.90;71.20;;;;;;4992506;28;20525;-76
2022/01/05 03:53:52;;;;;;;15.20;2.58;;;4.90;71.20;;;;;;4989692;28;20046;-76
2022/01/05 03:56:17;;;;;;;13.02;2.08;;;4.90;71.20;;;;;;4979513;28;20446;-76
2022/01/05 03:58:44;;;;;;;13.07;2.20;;;4.90;71.30;;;;;;4974457;28;20047;-76
2022/01/05 04:01:10;;;;;;;14.27;2.15;;;4.90;71.30;;;;;;4976267;28;20051;-75
2022/01/05 04:03:35;;;;;;;9.35;1.52;;;4.90;71.30;;;;;;4988388;28;20750;-76
2022/01/05 04:06:01;;;;;;;10.13;1.90;;;4.90;71.30;;;;;;4994319;28;20065;-76
2022/01/05 04:08:27;;;;;;;10.85;2.08;;;4.90;71.30;;;;;;4977091;28;20532;-76
2022/01/05 04:10:53;;;;;;;8.98;2.15;;;4.90;71.70;;;;;;4992379;28;20141;-76
2022/01/05 04:13:19;;;;;;;11.98;2.30;;;4.90;71.10;;;;;;4973931;28;20042;-76
2022/01/05 04:15:44;;;;;;;13.32;2.17;;;5.00;71.80;;;;;;4994574;28;20046;-76
2022/01/05 04:18:10;;;;;;;12.45;2.00;;;4.90;71.30;;;;;;4996080;28;20451;-75
2022/01/05 04:20:36;;;;;;;10.90;1.70;;;5.00;71.30;;;;;;4984189;28;20130;-76
2022/01/05 04:23:01;;;;;;;12.73;2.50;;;5.00;71.30;;;;;;4970962;28;20050;-75
2022/01/05 04:25:27;;;;;;;8.27;1.70;;;5.00;71.30;;;;;;4990938;28;20046;-76
2022/01/05 04:27:53;;;;;;;9.77;1.73;;;5.00;71.30;;;;;;4996176;28;20042;-76
2022/01/05 04:30:19;;;;;;;12.80;2.40;;;5.00;71.40;;;;;;4995779;28;20051;-76
2022/01/05 04:32:44;;;;;;;12.25;1.83;;;5.00;71.30;;;;;;4978430;28;20042;-76
2022/01/05 04:35:13;;;;;;;11.60;2.03;;;5.00;71.50;;;;;;4985178;28;20104;-75
2022/01/05 04:37:42;;;;;;;13.60;1.85;;;5.00;71.70;;;;;;4977968;28;20069;-76
2022/01/05 04:40:10;;;;;;;7.05;1.70;;;5.00;71.70;;;;;;4969858;28;20084;-76
2022/01/05 04:42:35;;;;;;;11.15;2.13;;;5.00;71.80;;;;;;4992262;28;20563;-76
2022/01/05 04:45:01;;;;;;;11.43;2.03;;;5.00;71.70;;;;;;4989079;28;20089;-76
2022/01/05 04:47:27;;;;;;;10.65;1.48;;;5.10;71.70;;;;;;4988245;28;20084;-76
2022/01/05 04:49:53;;;;;;;7.15;1.88;;;5.00;71.70;;;;;;4986202;28;20401;-76
2022/01/05 04:52:18;;;;;;;12.55;2.05;;;5.00;72.10;;;;;;4961095;28;20490;-76
2022/01/05 04:54:46;;;;;;;14.30;2.00;;;5.00;71.70;;;;;;4976470;28;20431;-75
2022/01/05 04:57:15;;;;;;;5.07;1.35;;;5.10;71.70;;;;;;4995102;28;20097;-75
2022/01/05 04:59:41;;;;;;;10.57;2.05;;;5.00;71.50;;;;;;4975655;28;20095;-76
2022/01/05 05:02:07;;;;;;;10.68;1.92;;;5.00;71.60;;;;;;4976544;28;20061;-76
2022/01/05 05:04:32;;;;;;;9.80;1.55;;;5.10;71.60;;;;;;4988198;28;20035;-76
2022/01/05 05:06:58;;;;;;;10.55;1.50;;;5.10;71.50;;;;;;4976609;28;20081;-76
2022/01/05 05:09:24;;;;;;;6.22;2.00;;;5.10;71.50;;;;;;4995073;28;20049;-76
2022/01/05 05:11:51;;;;;;;11.27;2.55;;;5.10;71.60;;;;;;4977193;28;20490;-76
2022/01/05 05:14:17;;;;;;;10.10;1.77;;;5.10;71.60;;;;;;4995558;28;20038;-76
2022/01/05 05:16:42;;;;;;;10.35;2.33;;;5.10;71.60;;;;;;4993053;28;20057;-76
2022/01/05 05:19:08;;;;;;;10.15;2.22;;;5.10;71.70;;;;;;4994116;28;20039;-76
2022/01/05 05:21:34;;;;;;;7.90;2.00;;;5.10;71.80;;;;;;4964986;28;20051;-76
2022/01/05 05:24:00;;;;;;;9.52;1.80;;;5.10;71.80;;;;;;4984519;28;20061;-76
2022/01/05 05:26:25;;;;;;;14.95;2.35;;;5.10;71.90;;;;;;4993550;28;20042;-76
2022/01/05 05:28:51;;;;;;;9.10;2.28;;;5.10;71.90;;;;;;4982368;28;20414;-76
2022/01/05 05:31:16;;;;;;;14.18;2.38;;;5.10;71.80;;;;;;4977100;28;20042;-76
2022/01/05 05:33:42;;;;;;;11.00;1.92;;;5.10;71.80;;;;;;4994547;28;20043;-76
2022/01/05 05:36:08;;;;;;;10.35;2.08;;;5.10;71.80;;;;;;4993286;28;20470;-76
2022/01/05 05:38:33;;;;;;;9.02;2.00;;;5.20;71.80;;;;;;4989724;28;20044;-76
2022/01/05 05:40:59;;;;;;;12.38;2.30;;;5.20;71.70;;;;;;4976127;28;20104;-77
2022/01/05 05:43:25;;;;;;;8.77;2.17;;;5.20;71.70;;;;;;4993840;28;20038;-76
2022/01/05 05:45:51;;;;;;;10.45;1.80;;;5.20;71.70;;;;;;4991283;28;20050;-77
2022/01/05 05:48:17;;;;;;;10.88;2.10;;;5.20;71.70;;;;;;4965467;28;20038;-76
2022/01/05 05:50:42;;;;;;;12.10;3.22;;;5.20;71.80;;;;;;4988115;28;20505;-76
2022/01/05 05:53:08;;;;;;;9.18;2.50;;;5.20;71.80;;;;;;4977341;28;20068;-76
2022/01/05 05:55:34;;;;;;;11.68;2.45;;;5.20;71.90;;;;;;4993353;28;20430;-76
2022/01/05 05:58:00;;;;;;;14.13;2.25;;;5.30;72.10;;;;;;4991952;28;20069;-76
2022/01/05 06:00:26;;;;;;;20.13;3.17;;;5.30;72.20;;;;;;4971471;28;20150;-76
2022/01/05 06:02:52;;;;;;;9.20;2.20;;;5.30;72.40;;;;;;4969082;28;20137;-76
2022/01/05 06:05:17;;;;;;;11.60;2.28;;;5.30;72.50;;;;;;4990512;28;20051;-76
2022/01/05 06:07:43;;;;;;;13.10;3.03;;;5.30;72.80;;;;;;4975342;28;20046;-76
2022/01/05 06:10:10;;;;;;;11.27;1.95;;;5.40;73.00;;;;;;4960924;28;20054;-76
2022/01/05 06:12:35;;;;;;;16.20;2.33;;;5.40;73.10;;;;;;4981463;28;20034;-76
2022/01/05 06:15:01;;;;;;;12.98;2.40;;;5.40;73.20;;;;;;4967483;28;20049;-76
2022/01/05 06:17:27;;;;;;;8.45;2.17;;;5.40;73.30;;;;;;4968923;28;20057;-76
2022/01/05 06:19:52;;;;;;;9.73;2.00;;;5.40;73.40;;;;;;4993202;28;20379;-76
2022/01/05 06:22:19;;;;;;;17.30;2.60;;;5.40;73.40;;;;;;4976567;28;20034;-76
2022/01/05 06:24:44;;;;;;;11.65;2.25;;;5.40;73.60;;;;;;4976266;28;20053;-76
2022/01/05 06:27:11;;;;;;;11.02;2.17;;;5.40;73.60;;;;;;4976317;28;20046;-76
2022/01/05 06:29:38;;;;;;;13.32;2.33;;;5.40;73.70;;;;;;4992986;28;20057;-76
2022/01/05 06:32:05;;;;;;;11.68;2.40;;;5.50;73.80;;;;;;4986274;28;20074;-76
2022/01/05 06:34:31;;;;;;;12.55;2.63;;;5.40;73.80;;;;;;4972238;28;20429;-76
2022/01/05 06:36:56;;;;;;;11.18;2.17;;;5.50;73.90;;;;;;4989622;28;20046;-76
2022/01/05 06:39:22;;;;;;;8.85;1.90;;;5.50;74.20;;;;;;4989651;28;20073;-77
2022/01/05 06:41:47;;;;;;;9.55;1.77;;;5.40;74.10;;;;;;4975923;28;20125;-76
2022/01/05 06:44:13;;;;;;;8.77;1.88;;;5.50;74.30;;;;;;4981040;28;20371;-76
2022/01/05 06:46:39;;;;;;;7.15;1.60;;;5.50;74.30;;;;;;4984142;28;20050;-75
2022/01/05 06:49:04;;;;;;;10.38;2.03;;;5.50;74.40;;;;;;4974703;28;20050;-75
2022/01/05 06:51:30;;;;;;;5.43;1.40;;;5.50;74.40;;;;;;4984384;28;20038;-76
2022/01/05 06:53:56;;;;;;;6.57;1.95;;;5.50;74.40;;;;;;4974841;28;20113;-76
2022/01/05 06:56:22;;;;;;;10.80;1.48;;;5.50;74.50;;;;;;4976913;28;20051;-76
2022/01/05 06:58:47;;;;;;;8.50;2.25;;;5.50;74.50;;;;;;4995189;28;20034;-76
2022/01/05 07:01:13;;;;;;;8.88;2.33;;;5.50;74.70;;;;;;4987898;28;20427;-76
2022/01/05 07:03:39;;;;;;;6.10;1.40;;;5.50;74.70;;;;;;4979803;28;20117;-76
2022/01/05 07:06:05;;;;;;;10.45;2.25;;;5.50;74.80;;;;;;4997631;28;20544;-76
2022/01/05 07:08:30;;;;;;;15.10;2.38;;;5.50;75.00;;;;;;4997311;28;20061;-76
2022/01/05 07:10:56;;;;;;;8.15;1.80;;;5.50;75.00;;;;;;4995899;28;20050;-75
2022/01/05 07:13:22;;;;;;;11.05;1.80;;;5.50;75.10;;;;;;4996256;28;20125;-76
2022/01/05 07:15:49;;;;;;;7.50;1.40;;;5.50;75.30;;;;;;4979512;28;20129;-75
2022/01/05 07:18:15;;;;;;;9.52;2.00;;;5.50;75.30;;;;;;4996081;28;20034;-75
2022/01/05 07:20:41;;;;;;;12.13;1.75;;;5.50;75.30;;;;;;4980363;28;20050;-76
2022/01/05 07:23:06;;;;;;;10.43;1.55;;;5.50;75.40;;;;;;4994676;28;20441;-76
2022/01/05 07:25:32;;;;;;;8.30;1.55;;;5.50;75.50;;;;;;4997327;28;20038;-76
2022/01/05 07:27:58;;;;;;;9.40;2.00;;;5.50;75.60;;;;;;4979952;28;20042;-75
2022/01/05 07:30:23;;;;;;;9.27;1.50;;;5.50;75.70;;;;;;4978726;28;20051;-76
2022/01/05 07:32:49;;;;;;;9.57;2.45;;;5.50;75.90;;;;;;4977910;28;20042;-75
2022/01/05 07:35:15;;;;;;;11.70;2.10;;;5.60;76.00;;;;;;4979627;28;20043;-75
2022/01/05 07:37:40;;;;;;;9.23;1.70;;;5.60;76.20;;;;;;4979544;28;20509;-75
2022/01/05 07:40:07;;;;;;;9.98;2.20;;;5.60;76.20;;;;;;4996753;28;20049;-75
2022/01/05 07:42:34;;;;;;;8.98;2.30;;;5.60;76.40;;;;;;4997131;28;20081;-75
2022/01/05 07:45:05;;;;;;;7.20;1.90;;;5.60;76.40;;;;;;4984699;28;20070;-76
2022/01/05 07:47:31;;;;;;;10.88;1.80;;;5.70;76.60;;;;;;4976531;28;20450;-76
2022/01/05 07:49:56;;;;;;;16.10;3.65;;;5.70;76.70;;;;;;4962572;28;20162;-76
2022/01/05 07:52:22;;;;;;;10.93;2.25;;;5.70;76.80;;;;;;4977972;28;20096;-75
2022/01/05 07:54:48;;;;;;;9.90;1.88;;;5.70;76.80;;;;;;4990984;28;20088;-75
2022/01/05 07:57:14;;;;;;;12.20;2.00;;;5.80;76.90;;;;;;4975955;28;20110;-76
2022/01/05 07:59:39;;;;;;;12.95;2.05;;;5.80;76.90;;;;;;4992339;28;20057;-75
2022/01/05 08:02:05;;;;;;;14.30;2.00;;;5.80;77.00;;;;;;4996815;28;20050;-76
2022/01/05 08:04:31;;;;;;;11.25;2.58;;;5.80;77.00;;;;;;4995869;28;20450;-76
2022/01/05 08:06:56;;;;;;;10.15;2.00;;;5.80;77.00;;;;;;5016711;28;20053;-75
2022/01/05 08:09:22;;;;;;;14.32;3.28;;;5.90;77.10;;;;;;5003900;28;20042;-75
2022/01/05 08:11:47;;;;;;;12.18;3.42;;;5.90;77.00;;;;;;4979417;28;20050;-76
2022/01/05 08:14:13;;;;;;;18.35;2.42;;;5.90;77.10;;;;;;4994879;28;20034;-75
2022/01/05 08:16:39;;;;;;;21.10;3.15;;;5.90;77.20;;;;;;4996432;28;20367;-76
2022/01/05 08:19:05;;;;;;;13.65;2.20;;;5.90;77.20;;;;;;4996537;28;20397;-75
2022/01/05 08:21:30;;;;;;;11.57;2.30;;;5.90;77.40;;;;;;4996998;28;20520;-75
2022/01/05 08:23:56;;;;;;;10.95;2.70;;;6.00;77.40;;;;;;4995060;28;20036;-75
2022/01/05 08:26:22;;;;;;;16.60;2.45;;;5.90;77.50;;;;;;4959833;28;20054;-75
2022/01/05 08:28:48;;;;;;;19.15;2.67;;;6.00;77.70;;;;;;4991330;28;20432;-75
2022/01/05 08:31:14;;;;;;;18.30;3.05;;;5.90;77.80;;;;;;4985692;28;20049;-75
2022/01/05 08:33:40;;;;;;;9.63;1.85;;;6.00;77.90;;;;;;4995492;28;20089;-75
2022/01/05 08:36:05;;;;;;;11.90;2.30;;;6.00;78.00;;;;;;4967567;28;20053;-75
2022/01/05 08:38:35;;;;;;;12.57;2.45;;;6.00;78.00;;;;;;4971273;28;20482;-75
2022/01/05 08:41:01;;;;;;;10.40;1.98;;;6.00;78.00;;;;;;4996156;28;20085;-74
2022/01/05 08:43:26;;;;;;;14.40;2.60;;;6.00;77.80;;;;;;4995428;28;20144;-75
2022/01/05 08:45:52;;;;;;;8.30;1.42;;;6.00;77.80;;;;;;4987983;28;20046;-76
2022/01/05 08:48:18;;;;;;;10.07;2.00;;;6.00;77.80;;;;;;4975265;28;20042;-76
2022/01/05 08:50:44;;;;;;;9.38;1.65;;;6.00;77.80;;;;;;4975704;28;20058;-76
2022/01/05 08:53:10;;;;;;;17.08;2.45;;;6.00;77.80;;;;;;4995750;28;20042;-76
2022/01/05 08:55:42;;;;;;;12.02;2.50;;;6.00;77.90;;;;;;4992584;28;20049;-76
2022/01/05 08:58:09;;;;;;;11.55;2.03;;;6.00;77.90;;;;;;4993116;28;20039;-76
2022/01/05 09:00:36;;;;;;;15.73;2.38;;;6.00;77.90;;;;;;4969697;28;20047;-76
2022/01/05 09:03:03;;;;;;;15.88;3.53;;;6.00;77.90;;;;;;4992915;28;20425;-75
2022/01/05 09:05:30;;;;;;;15.82;2.40;;;6.00;78.00;;;;;;4993995;28;20047;-75
2022/01/05 09:07:56;;;;;;;24.65;3.28;;;6.00;78.10;;;;;;4990368;28;20057;-76
2022/01/05 09:10:22;;;;;;;19.10;4.28;;;6.00;78.30;;;;;;4995048;28;20038;-76
2022/01/05 09:12:48;;;;;;;20.17;3.25;;;6.00;78.40;;;;;;4963844;28;20054;-76
2022/01/05 09:15:14;;;;;;;17.00;3.13;;;6.10;78.60;;;;;;4979578;28;20923;-75
2022/01/05 09:17:40;;;;;;;20.13;3.63;;;6.10;78.60;;;;;;4969165;28;20402;-75
2022/01/05 09:20:07;;;;;;;16.77;2.70;;;6.20;78.70;;;;;;4959429;28;20046;-75
2022/01/05 09:22:37;;;;;;;17.45;3.55;;;6.20;78.70;;;;;;4993982;28;20046;-75
2022/01/05 09:25:05;;;;;;;19.85;3.05;;;6.20;78.70;;;;;;4993747;28;20040;-76
2022/01/05 09:27:30;;;;;;;13.88;3.28;;;6.20;78.60;;;;;;4993162;28;20054;-76
2022/01/05 09:29:56;;;;;;;15.38;2.38;;;6.30;78.70;;;;;;4991721;28;20402;-76
2022/01/05 09:32:22;;;;;;;17.35;2.70;;;6.30;78.60;;;;;;4975711;28;20054;-76
2022/01/05 09:34:48;;;;;;;18.38;3.00;;;6.30;78.60;;;;;;4984645;28;20035;-76
2022/01/05 09:37:21;;;;;;;22.73;4.70;;;6.30;78.70;;;;;;4993639;28;20054;-76
2022/01/05 09:42:32;;;;;;;16.90;3.10;;;6.40;78.80;;;;;;4990011;28;20042;-76
2022/01/05 09:44:59;;;;;;;18.55;3.17;;;6.40;78.80;;;;;;4973047;28;20398;-76
2022/01/05 09:47:42;;;;;;;15.18;2.75;;;6.40;78.90;;;;;;4976758;28;20038;-76
2022/01/05 09:50:10;;;;;;;15.60;2.42;;;6.40;78.80;;;;;;4993281;28;20113;-76
2022/01/05 09:52:43;;;;;;;19.42;2.90;;;6.40;78.70;;;;;;4994771;28;20046;-76
2022/01/05 09:55:11;;;;;;;15.45;4.28;;;6.40;78.70;;;;;;4970484;28;20054;-76
2022/01/05 09:57:39;;;;;;;17.67;2.97;;;6.50;78.60;;;;;;4964530;28;20046;-76
2022/01/05 10:00:06;;;;;;;18.27;3.30;;;6.50;78.50;;;;;;4986688;28;20042;-76
2022/01/05 10:02:32;;;;;;;14.10;2.90;;;6.50;78.30;;;;;;4993541;28;20484;-76
2022/01/05 10:04:58;;;;;;;18.60;3.45;;;6.50;78.20;;;;;;4993963;28;20081;-76
2022/01/05 10:07:24;;;;;;;12.93;2.60;;;6.50;78.10;;;;;;4989006;28;20048;-77
2022/01/05 10:09:51;;;;;;;21.25;3.05;;;6.50;77.80;;;;;;4989924;28;20113;-76
2022/01/05 10:12:17;;;;;;;19.83;2.88;;;6.50;77.60;;;;;;4975639;28;20052;-76
2022/01/05 10:14:48;;;;;;;20.48;2.95;;;6.50;77.60;;;;;;4975835;28;20054;-77
2022/01/05 10:17:16;;;;;;;16.95;3.13;;;6.60;77.60;;;;;;4958663;28;20030;-77
2022/01/05 10:19:44;;;;;;;15.05;3.42;;;6.60;77.40;;;;;;4992178;28;20112;-76
2022/01/05 10:22:35;;;;;;;20.35;2.92;;;6.50;77.40;;;;;;4991470;28;20486;-76
2022/01/05 10:25:20;;;;;;;21.73;3.60;;;6.50;77.40;;;;;;4993974;28;20398;-75
2022/01/05 10:28:04;;;;;;;17.23;2.55;;;6.60;77.60;;;;;;4977685;28;20144;-75
2022/01/05 10:30:39;;;;;;;17.00;2.45;;;6.60;77.60;;;;;;4975918;28;20043;-75
2022/01/05 10:33:05;;;;;;;12.82;2.60;;;6.60;77.60;;;;;;4974333;28;20066;-77
2022/01/05 10:35:31;;;;;;;9.48;2.35;;;6.60;77.60;;;;;;4990481;28;20052;-76
2022/01/05 10:38:03;;;;;;;19.35;2.92;;;6.60;77.60;;;;;;4975230;28;20042;-76
2022/01/05 10:40:33;;;;;;;14.07;2.58;;;6.60;77.60;;;;;;4994102;28;20050;-76
2022/01/05 10:42:58;;;;;;;18.27;3.15;;;6.60;77.40;;;;;;4980176;28;20049;-77
2022/01/05 10:45:41;;;;;;;13.35;2.65;;;6.60;77.30;;;;;;4993307;28;20410;-77
2022/01/05 10:48:12;;;;;;;15.23;2.80;;;6.60;77.20;;;;;;4974667;28;20042;-77
2022/01/05 10:50:38;;;;;;;20.88;2.63;;;6.60;77.20;;;;;;4993627;28;20043;-77
2022/01/05 10:53:06;;;;;;;14.57;2.72;;;6.60;77.20;;;;;;4989548;28;20101;-77
2022/01/05 10:55:38;;;;;;;21.98;3.22;;;6.60;77.20;;;;;;4975909;28;20070;-77
2022/01/05 10:58:12;;;;;;;13.95;3.13;;;6.60;77.30;;;;;;4991087;28;20508;-77
2022/01/05 11:00:45;;;;;;;14.32;2.97;;;6.70;77.60;;;;;;4994202;28;20043;-77
2022/01/05 11:03:35;;;;;;;22.48;3.05;;;6.60;77.60;;;;;;4984602;28;20066;-78
2022/01/05 11:06:13;;;;;;;21.55;3.38;;;6.70;77.60;;;;;;4983599;28;20446;-78
2022/01/05 11:08:52;;;;;;;19.77;4.03;;;6.70;77.80;;;;;;4974345;28;20062;-78
2022/01/05 11:11:43;;;;;;;19.05;4.10;;;6.80;78.00;;;;;;4993747;28;20117;-78
2022/01/05 11:14:14;;;;;;;15.68;2.50;;;6.80;78.00;;;;;;4992427;28;20121;-78
2022/01/05 11:16:42;;;;;;;18.10;3.58;;;6.80;77.80;;;;;;4990773;28;20077;-78
2022/01/05 11:19:15;;;;;;;20.30;4.07;;;6.90;77.40;;;;;;4970751;28;20049;-78
2022/01/05 11:22:06;;;;;;;15.82;2.25;;;6.90;77.10;;;;;;4991385;28;20046;-77
2022/01/05 11:24:40;;;;;;;17.73;3.70;;;7.00;76.50;;;;;;4974760;28;20498;-78
2022/01/05 11:27:09;;;;;;;19.58;4.22;;;7.10;76.20;;;;;;4991113;28;20501;-83
2022/01/05 11:29:35;;;;;;;11.18;3.00;;;7.10;76.00;;;;;;4990541;28;20038;-81
2022/01/05 11:32:04;;;;;;;16.08;3.08;;;7.10;75.60;;;;;;4985321;28;20035;-81
2022/01/05 11:34:30;;;;;;;11.13;2.50;;;7.20;75.50;;;;;;4993539;28;20038;-81
2022/01/05 11:36:57;;;;;;;13.60;2.40;;;7.20;75.30;;;;;;4993285;28;20050;-80
2022/01/05 11:39:23;;;;;;;14.77;2.65;;;7.20;75.30;;;;;;4978198;28;20046;-81
2022/01/05 11:41:51;;;;;;;18.92;2.97;;;7.30;75.10;;;;;;4960753;28;20046;-81
2022/01/05 11:44:18;;;;;;;14.50;2.17;;;7.30;74.80;;;;;;4979699;28;20448;-80
2022/01/05 11:46:46;;;;;;;12.07;2.42;;;7.40;74.80;;;;;;4981881;28;20141;-81
2022/01/05 11:49:23;;;;;;;15.75;3.83;;;7.40;74.80;;;;;;4973732;28;20069;-80
2022/01/05 11:51:51;;;;;;;14.35;3.47;;;7.40;74.70;;;;;;4977367;28;20089;-80
2022/01/05 11:54:32;;;;;;;12.85;3.08;;;7.50;74.80;;;;;;4968574;28;20042;-79
2022/01/05 11:57:12;;;;;;;15.10;3.03;;;7.50;74.90;;;;;;4979779;28;20050;-78
2022/01/05 11:59:42;;;;;;;16.77;2.42;;;7.50;74.70;;;;;;4996027;28;20448;-77
2022/01/05 12:02:14;;;;;;;13.10;3.17;;;7.60;74.80;;;;;;4996889;28;20052;-78
2022/01/05 12:04:51;;;;;;;17.10;2.90;;;7.50;74.50;;;;;;4976614;28;20054;-77
2022/01/05 12:07:43;;;;;;;14.70;3.25;;;7.50;74.20;;;;;;4979301;28;20401;-77
2022/01/05 12:10:22;;;;;;;12.95;2.90;;;7.50;74.30;;;;;;4996811;28;20402;-77
2022/01/05 12:13:04;;;;;;;14.38;2.30;;;7.60;74.40;;;;;;4979035;28;20141;-76
2022/01/05 12:15:40;;;;;;;19.83;3.88;;;7.60;74.60;;;;;;4978664;28;20124;-76
2022/01/05 12:18:07;;;;;;;11.82;2.22;;;7.60;74.40;;;;;;4978570;28;20042;-76
2022/01/05 12:20:37;;;;;;;10.77;2.08;;;7.60;74.30;;;;;;4996371;28;20046;-77
2022/01/05 12:23:24;;;;;;;9.77;2.25;;;7.60;74.00;;;;;;4988214;28;20042;-76
2022/01/05 12:26:08;;;;;;;7.68;1.88;;;7.60;73.40;;;;;;4978854;28;20121;-76
2022/01/05 12:28:36;;;;;;;8.00;1.60;;;7.50;73.20;;;;;;4978090;28;20088;-76
2022/01/05 12:31:06;;;;;;;11.40;1.70;;;7.50;73.20;;;;;;4950868;28;20056;-82
2022/01/05 12:33:55;;;;;;;12.45;1.95;;;7.50;73.00;;;;;;4972319;28;20160;-82
2022/01/05 12:36:34;;;;;;;11.30;1.63;;;7.50;72.80;;;;;;4971350;28;20054;-81
2022/01/05 12:39:05;;;;;;;10.13;1.95;;;7.50;72.80;;;;;;4992643;28;20042;-81
2022/01/05 12:41:39;;;;;;;15.15;2.60;;;7.50;72.80;;;;;;4978535;28;20085;-82
2022/01/05 12:44:18;;;;;;;15.45;3.00;;;7.50;72.50;;;;;;4971267;28;20051;-81
2022/01/05 12:46:46;;;;;;;11.27;2.55;;;7.50;72.50;;;;;;4971132;28;20069;-82
2022/01/05 12:49:26;;;;;;;5.72;1.50;;;7.50;72.80;;;;;;4977894;28;20157;-81
2022/01/05 12:52:02;;;;;;;8.35;1.55;;;7.50;72.90;;;;;;4977163;28;20466;-81
2022/01/05 12:54:39;;;;;;;6.82;1.05;;;7.50;72.80;;;;;;4968447;28;20059;-81
2022/01/05 12:57:05;;;;;;;6.07;1.05;;;7.50;72.60;;;;;;4977169;28;20678;-82
2022/01/05 12:59:35;;;;;;;7.25;1.02;;;7.50;72.40;;;;;;4977703;28;20133;-81